Flight Track Log - Related Links

Times and Time Zones

All times are in EST time to prevent confusion due to time zone crossing. See the CUA5905 flight status page for this flight to view local times or setup timezone preferences in your user account.

Time Position Orientation Groundspeed Altitude Reporting Facility
EST Latitude Longitude Course Direction KTS MPH feet Rate Location/Type
Mon 11:02:00 PM 38.9439 116.8112 158° South  Level Estimated
Mon 11:03:00 PM 38.8603 116.8532 159° South  Level Estimated
Mon 11:04:00 PM 38.7766 116.8950 159° South  Level Estimated
Mon 11:05:00 PM 38.6930 116.9367 159° South  Level Estimated
Mon 11:06:00 PM 38.6093 116.9784 159° South  Level Estimated
Mon 11:07:00 PM 38.5256 117.0199 159° South  Level Estimated
Mon 11:08:00 PM 38.4419 117.0613 159° South  Level Estimated
Mon 11:09:00 PM 38.3581 117.1027 159° South  Level Estimated
Mon 11:10:00 PM 38.2744 117.1439 159° South  Level Estimated
Mon 11:11:00 PM 38.1906 117.1851 159° South  Level Estimated
Mon 11:12:00 PM 38.1069 117.2262 159° South  Level Estimated
Mon 11:13:00 PM 38.0231 117.2671 159° South  Level Estimated
Mon 11:14:00 PM 37.9393 117.3080 159° South  Level Estimated
Mon 11:15:00 PM 37.8555 117.3488 159° South  Level Estimated
Mon 11:16:00 PM 37.7716 117.3895 159° South  Level Estimated
Mon 11:17:00 PM 37.6878 117.4301 159° South  Level Estimated
Mon 11:18:00 PM 37.6040 117.4706 159° South  Level Estimated
Mon 11:19:00 PM 37.5201 117.5110 159° South  Level Estimated
Mon 11:20:00 PM 37.4362 117.5513 159° South  Level Estimated
Mon 11:21:00 PM 37.3523 117.5915 159° South  Level Estimated
Mon 11:22:00 PM 37.2684 117.6317 159° South  Level Estimated
Mon 11:23:00 PM 37.1845 117.6717 159° South  Level Estimated
Mon 11:24:00 PM 37.1006 117.7117 159° South  Level Estimated
Mon 11:25:00 PM 37.0166 117.7516 159° South  Level Estimated
Mon 11:26:00 PM 36.9326 117.7914 159° South  Level Estimated
Mon 11:27:00 PM 36.8487 117.8310 159° South  Level Estimated
Mon 11:28:00 PM 36.7647 117.8707 159° South  Level Estimated
Mon 11:29:00 PM 36.6807 117.9102 159° South  Level Estimated
Mon 11:30:00 PM 36.5967 117.9496 159° South  Level Estimated
Mon 11:31:00 PM 36.5126 117.9890 159° South  Level Estimated
Mon 11:32:00 PM 36.4286 118.0283 159° South  Level Estimated
Mon 11:33:00 PM 36.3445 118.0674 159° South  Level Estimated
Mon 11:34:00 PM 36.2605 118.1065 159° South  Level Estimated
Mon 11:35:00 PM 36.1764 118.1456 159° South  Level Estimated
Mon 11:36:00 PM 36.0923 118.1845 159° South  Level Estimated
Mon 11:37:00 PM 36.0082 118.2233 160° South  Level Estimated
Mon 11:38:00 PM 35.9241 118.2621 160° South  Level Estimated
Mon 11:39:00 PM 35.8400 118.3008 160° South  Level Estimated
Mon 11:40:00 PM 35.7558 118.3394 160° South  Level Estimated
Mon 11:41:00 PM 35.6717 118.3779 160° South  Level Estimated
Mon 11:42:00 PM 35.5938 118.4135 160° South  Level Estimated
Mon 11:43:00 PM 35.5159 118.4490 160° South  Level Estimated
Mon 11:44:00 PM 35.4380 118.4844 160° South  Level Estimated
Mon 11:45:00 PM 35.3601 118.5198 160° South  Level Estimated
Mon 11:46:00 PM 35.2821 118.5551 160° South  Level Estimated
Mon 11:47:00 PM 35.2042 118.5903 160° South  Level Estimated
Mon 11:48:00 PM 35.1263 118.6255 160° South  Level Estimated
Mon 11:49:00 PM 35.0483 118.6606 160° South  Level Estimated
Mon 11:50:00 PM 34.9703 118.6956 160° South  Level Estimated
Mon 11:51:00 PM 34.8923 118.7306 160° South  Level Estimated
Mon 11:52:00 PM 34.8144 118.7655 160° South  Level Estimated
Mon 11:53:00 PM 34.7364 118.8003 160° South  Level Estimated
Mon 11:54:00 PM 34.6584 118.8351 160° South  Level Estimated
Mon 11:55:00 PM 34.5803 118.8698 160° South  Level Estimated
Mon 11:56:00 PM 34.5717 118.8736 160° South  Level Estimated
Mon 11:57:00 PM 34.5717 118.8736 165° South  Level Estimated
Mon 11:58:00 PM 34.5717 118.8736 165° South  Level Estimated
Mon 11:59:00 PM 34.5717 118.8736 165° South  Level Estimated
Tue 12:00:00 AM 34.5717 118.8736 165° South  Level Estimated
Tue 12:01:00 AM 34.5717 118.8736 165° South  Level Estimated
Tue 12:02:00 AM 34.5717 118.8736 165° South  Level Estimated
Tue 12:03:00 AM 34.5717 118.8736 165° South  Level Estimated
Tue 12:04:00 AM 34.5717 118.8736 165° South  Level Estimated
Tue 12:05:00 AM 34.5717 118.8736 165° South  Level Estimated
Tue 12:06:00 AM 34.5717 118.8736 165° South  Level Estimated
Tue 12:07:00 AM 34.5717 118.8736 165° South  Level Estimated
Tue 12:08:00 AM 34.5717 118.8736 165° South  Level Estimated
Tue 12:09:00 AM 34.5717 118.8736 165° South  Level Estimated
Tue 12:10:00 AM 34.5717 118.8736 165° South  Level Estimated

Login

Don't have an account? Register now (free) for customized features, flight alerts, and more!